sensor_id;sensor_type;location;lat;lon;timestamp;P1;durP1;ratioP1;P2;durP2;ratioP2
18102;SDS011;9178;51.120;6.192;2022-10-29T00:00:00;17.95;;;6.28;;
18102;SDS011;9178;51.120;6.192;2022-10-29T00:02:26;13.75;;;5.93;;
18102;SDS011;9178;51.120;6.192;2022-10-29T00:04:54;13.38;;;6.07;;
18102;SDS011;9178;51.120;6.192;2022-10-29T00:07:21;14.18;;;5.82;;
18102;SDS011;9178;51.120;6.192;2022-10-29T00:09:48;20.67;;;5.80;;
18102;SDS011;9178;51.120;6.192;2022-10-29T00:12:15;24.45;;;6.07;;
18102;SDS011;9178;51.120;6.192;2022-10-29T00:14:41;18.33;;;5.35;;
18102;SDS011;9178;51.120;6.192;2022-10-29T00:17:08;12.48;;;5.68;;
18102;SDS011;9178;51.120;6.192;2022-10-29T00:19:35;15.50;;;5.78;;
18102;SDS011;9178;51.120;6.192;2022-10-29T00:22:03;20.05;;;6.30;;
18102;SDS011;9178;51.120;6.192;2022-10-29T00:24:30;13.07;;;5.80;;
18102;SDS011;9178;51.120;6.192;2022-10-29T00:26:56;15.02;;;6.10;;
18102;SDS011;9178;51.120;6.192;2022-10-29T00:29:23;19.42;;;6.65;;
18102;SDS011;9178;51.120;6.192;2022-10-29T00:31:50;16.05;;;5.95;;
18102;SDS011;9178;51.120;6.192;2022-10-29T00:34:17;13.95;;;5.63;;
18102;SDS011;9178;51.120;6.192;2022-10-29T00:36:43;11.43;;;5.72;;
18102;SDS011;9178;51.120;6.192;2022-10-29T00:39:13;13.25;;;6.30;;
18102;SDS011;9178;51.120;6.192;2022-10-29T00:41:41;21.98;;;6.90;;
18102;SDS011;9178;51.120;6.192;2022-10-29T00:47:03;12.20;;;6.03;;
18102;SDS011;9178;51.120;6.192;2022-10-29T00:49:42;12.80;;;6.05;;
18102;SDS011;9178;51.120;6.192;2022-10-29T00:52:12;13.88;;;6.07;;
18102;SDS011;9178;51.120;6.192;2022-10-29T00:54:42;16.03;;;6.53;;
18102;SDS011;9178;51.120;6.192;2022-10-29T00:57:14;15.85;;;7.03;;
18102;SDS011;9178;51.120;6.192;2022-10-29T00:59:45;10.95;;;5.90;;
18102;SDS011;9178;51.120;6.192;2022-10-29T01:02:14;13.73;;;6.13;;
18102;SDS011;9178;51.120;6.192;2022-10-29T01:04:41;14.13;;;5.90;;
18102;SDS011;9178;51.120;6.192;2022-10-29T01:07:08;13.85;;;6.30;;
18102;SDS011;9178;51.120;6.192;2022-10-29T01:09:36;14.73;;;6.13;;
18102;SDS011;9178;51.120;6.192;2022-10-29T01:12:08;18.57;;;6.33;;
18102;SDS011;9178;51.120;6.192;2022-10-29T01:14:48;15.10;;;6.78;;
18102;SDS011;9178;51.120;6.192;2022-10-29T01:17:24;17.40;;;7.45;;
18102;SDS011;9178;51.120;6.192;2022-10-29T01:20:07;14.77;;;6.90;;
18102;SDS011;9178;51.120;6.192;2022-10-29T01:22:57;15.53;;;6.60;;
18102;SDS011;9178;51.120;6.192;2022-10-29T01:25:43;16.50;;;6.53;;
18102;SDS011;9178;51.120;6.192;2022-10-29T01:28:29;15.63;;;6.60;;
18102;SDS011;9178;51.120;6.192;2022-10-29T01:31:09;13.87;;;6.30;;
18102;SDS011;9178;51.120;6.192;2022-10-29T01:33:45;17.90;;;6.82;;
18102;SDS011;9178;51.120;6.192;2022-10-29T01:36:22;14.50;;;5.93;;
18102;SDS011;9178;51.120;6.192;2022-10-29T01:38:59;17.77;;;6.90;;
18102;SDS011;9178;51.120;6.192;2022-10-29T01:41:31;11.97;;;6.30;;
18102;SDS011;9178;51.120;6.192;2022-10-29T01:44:06;19.10;;;7.00;;
18102;SDS011;9178;51.120;6.192;2022-10-29T01:46:41;14.38;;;6.35;;
18102;SDS011;9178;51.120;6.192;2022-10-29T01:49:13;15.97;;;6.60;;
18102;SDS011;9178;51.120;6.192;2022-10-29T01:51:43;15.30;;;7.13;;
18102;SDS011;9178;51.120;6.192;2022-10-29T01:54:11;15.30;;;6.63;;
18102;SDS011;9178;51.120;6.192;2022-10-29T01:56:38;18.20;;;6.73;;
18102;SDS011;9178;51.120;6.192;2022-10-29T01:59:06;15.97;;;6.93;;
18102;SDS011;9178;51.120;6.192;2022-10-29T02:01:38;19.00;;;7.00;;
18102;SDS011;9178;51.120;6.192;2022-10-29T02:04:23;16.73;;;6.93;;
18102;SDS011;9178;51.120;6.192;2022-10-29T02:07:12;14.27;;;6.77;;
18102;SDS011;9178;51.120;6.192;2022-10-29T02:09:47;20.80;;;6.60;;
18102;SDS011;9178;51.120;6.192;2022-10-29T02:12:20;18.33;;;6.90;;
18102;SDS011;9178;51.120;6.192;2022-10-29T02:14:50;14.73;;;6.70;;
18102;SDS011;9178;51.120;6.192;2022-10-29T02:17:23;14.50;;;6.70;;
18102;SDS011;9178;51.120;6.192;2022-10-29T02:19:50;12.97;;;6.90;;
18102;SDS011;9178;51.120;6.192;2022-10-29T02:22:17;15.17;;;6.53;;
18102;SDS011;9178;51.120;6.192;2022-10-29T02:24:44;15.87;;;6.60;;
18102;SDS011;9178;51.120;6.192;2022-10-29T02:27:10;11.47;;;6.43;;
18102;SDS011;9178;51.120;6.192;2022-10-29T02:29:37;15.97;;;6.97;;
18102;SDS011;9178;51.120;6.192;2022-10-29T02:32:04;10.33;;;6.67;;
18102;SDS011;9178;51.120;6.192;2022-10-29T02:34:32;16.23;;;6.60;;
18102;SDS011;9178;51.120;6.192;2022-10-29T02:36:59;13.50;;;7.20;;
18102;SDS011;9178;51.120;6.192;2022-10-29T02:39:26;19.00;;;7.70;;
18102;SDS011;9178;51.120;6.192;2022-10-29T02:41:52;15.10;;;7.13;;
18102;SDS011;9178;51.120;6.192;2022-10-29T02:44:19;16.00;;;6.90;;
18102;SDS011;9178;51.120;6.192;2022-10-29T02:46:46;17.10;;;7.30;;
18102;SDS011;9178;51.120;6.192;2022-10-29T02:49:13;19.90;;;7.90;;
18102;SDS011;9178;51.120;6.192;2022-10-29T02:51:41;15.43;;;7.60;;
18102;SDS011;9178;51.120;6.192;2022-10-29T02:54:07;16.87;;;7.23;;
18102;SDS011;9178;51.120;6.192;2022-10-29T02:56:34;16.77;;;7.43;;
18102;SDS011;9178;51.120;6.192;2022-10-29T02:59:01;15.43;;;6.93;;
18102;SDS011;9178;51.120;6.192;2022-10-29T03:01:28;15.30;;;8.27;;
18102;SDS011;9178;51.120;6.192;2022-10-29T03:03:54;17.30;;;8.00;;
18102;SDS011;9178;51.120;6.192;2022-10-29T03:06:21;15.87;;;7.67;;
18102;SDS011;9178;51.120;6.192;2022-10-29T03:08:49;15.23;;;8.07;;
18102;SDS011;9178;51.120;6.192;2022-10-29T03:11:16;18.77;;;8.03;;
18102;SDS011;9178;51.120;6.192;2022-10-29T03:13:43;23.87;;;8.30;;
18102;SDS011;9178;51.120;6.192;2022-10-29T03:16:09;24.23;;;8.77;;
18102;SDS011;9178;51.120;6.192;2022-10-29T03:18:36;19.80;;;8.03;;
18102;SDS011;9178;51.120;6.192;2022-10-29T03:21:03;20.80;;;7.80;;
18102;SDS011;9178;51.120;6.192;2022-10-29T03:23:30;21.07;;;8.30;;
18102;SDS011;9178;51.120;6.192;2022-10-29T03:25:58;16.13;;;8.20;;
18102;SDS011;9178;51.120;6.192;2022-10-29T03:28:25;16.70;;;8.37;;
18102;SDS011;9178;51.120;6.192;2022-10-29T03:30:54;16.23;;;7.73;;
18102;SDS011;9178;51.120;6.192;2022-10-29T03:33:20;15.33;;;8.40;;
18102;SDS011;9178;51.120;6.192;2022-10-29T03:35:47;19.10;;;9.07;;
18102;SDS011;9178;51.120;6.192;2022-10-29T03:38:14;14.50;;;7.60;;
18102;SDS011;9178;51.120;6.192;2022-10-29T03:40:41;15.67;;;7.40;;
18102;SDS011;9178;51.120;6.192;2022-10-29T03:43:10;16.03;;;7.50;;
18102;SDS011;9178;51.120;6.192;2022-10-29T03:45:36;22.70;;;7.93;;
18102;SDS011;9178;51.120;6.192;2022-10-29T03:48:06;16.60;;;8.60;;
18102;SDS011;9178;51.120;6.192;2022-10-29T03:50:33;18.57;;;8.57;;
18102;SDS011;9178;51.120;6.192;2022-10-29T03:52:59;22.20;;;7.67;;
18102;SDS011;9178;51.120;6.192;2022-10-29T03:55:26;18.23;;;7.60;;
18102;SDS011;9178;51.120;6.192;2022-10-29T03:57:53;18.07;;;7.57;;
18102;SDS011;9178;51.120;6.192;2022-10-29T04:00:22;17.17;;;7.73;;
18102;SDS011;9178;51.120;6.192;2022-10-29T04:02:48;17.47;;;7.73;;
18102;SDS011;9178;51.120;6.192;2022-10-29T04:05:15;12.20;;;6.67;;
18102;SDS011;9178;51.120;6.192;2022-10-29T04:07:42;15.07;;;7.40;;
18102;SDS011;9178;51.120;6.192;2022-10-29T04:10:09;17.20;;;7.80;;
18102;SDS011;9178;51.120;6.192;2022-10-29T04:12:36;20.93;;;7.70;;
18102;SDS011;9178;51.120;6.192;2022-10-29T04:15:03;15.17;;;7.67;;
18102;SDS011;9178;51.120;6.192;2022-10-29T04:17:31;17.83;;;7.07;;
18102;SDS011;9178;51.120;6.192;2022-10-29T04:19:58;13.00;;;6.77;;
18102;SDS011;9178;51.120;6.192;2022-10-29T04:22:25;17.13;;;8.87;;
18102;SDS011;9178;51.120;6.192;2022-10-29T04:24:51;16.37;;;7.17;;
18102;SDS011;9178;51.120;6.192;2022-10-29T04:27:18;14.93;;;6.83;;
18102;SDS011;9178;51.120;6.192;2022-10-29T04:29:45;19.20;;;7.17;;
18102;SDS011;9178;51.120;6.192;2022-10-29T04:32:12;12.77;;;6.47;;
18102;SDS011;9178;51.120;6.192;2022-10-29T04:34:40;19.10;;;6.83;;
18102;SDS011;9178;51.120;6.192;2022-10-29T04:37:07;16.50;;;6.60;;
18102;SDS011;9178;51.120;6.192;2022-10-29T04:39:33;18.37;;;7.10;;
18102;SDS011;9178;51.120;6.192;2022-10-29T04:42:00;21.43;;;6.60;;
18102;SDS011;9178;51.120;6.192;2022-10-29T04:44:27;18.67;;;8.00;;
18102;SDS011;9178;51.120;6.192;2022-10-29T04:46:53;17.43;;;7.17;;
18102;SDS011;9178;51.120;6.192;2022-10-29T04:49:20;13.17;;;6.50;;
18102;SDS011;9178;51.120;6.192;2022-10-29T04:51:48;13.90;;;7.03;;
18102;SDS011;9178;51.120;6.192;2022-10-29T04:54:15;16.10;;;6.93;;
18102;SDS011;9178;51.120;6.192;2022-10-29T04:56:42;12.63;;;6.90;;
18102;SDS011;9178;51.120;6.192;2022-10-29T04:59:08;16.97;;;6.30;;
18102;SDS011;9178;51.120;6.192;2022-10-29T05:01:35;13.77;;;6.57;;
18102;SDS011;9178;51.120;6.192;2022-10-29T05:04:02;13.33;;;6.37;;
18102;SDS011;9178;51.120;6.192;2022-10-29T05:06:29;13.13;;;6.93;;
18102;SDS011;9178;51.120;6.192;2022-10-29T05:08:57;14.70;;;6.73;;
18102;SDS011;9178;51.120;6.192;2022-10-29T05:11:24;12.53;;;6.47;;
18102;SDS011;9178;51.120;6.192;2022-10-29T05:13:51;12.23;;;6.80;;
18102;SDS011;9178;51.120;6.192;2022-10-29T05:16:17;12.40;;;6.77;;
18102;SDS011;9178;51.120;6.192;2022-10-29T05:18:44;13.77;;;6.30;;
18102;SDS011;9178;51.120;6.192;2022-10-29T05:21:11;12.67;;;6.37;;
18102;SDS011;9178;51.120;6.192;2022-10-29T05:23:37;13.93;;;6.03;;
18102;SDS011;9178;51.120;6.192;2022-10-29T05:26:06;12.23;;;6.23;;
18102;SDS011;9178;51.120;6.192;2022-10-29T05:28:32;12.00;;;5.97;;
18102;SDS011;9178;51.120;6.192;2022-10-29T05:30:59;10.90;;;6.03;;
18102;SDS011;9178;51.120;6.192;2022-10-29T05:33:26;14.60;;;6.07;;
18102;SDS011;9178;51.120;6.192;2022-10-29T05:35:53;12.20;;;6.13;;
18102;SDS011;9178;51.120;6.192;2022-10-29T05:38:20;12.33;;;5.80;;
18102;SDS011;9178;51.120;6.192;2022-10-29T05:40:47;12.57;;;6.03;;
18102;SDS011;9178;51.120;6.192;2022-10-29T05:43:15;10.53;;;5.20;;
18102;SDS011;9178;51.120;6.192;2022-10-29T05:45:42;14.10;;;6.17;;
18102;SDS011;9178;51.120;6.192;2022-10-29T05:48:10;11.33;;;5.63;;
18102;SDS011;9178;51.120;6.192;2022-10-29T05:50:37;11.50;;;5.13;;
18102;SDS011;9178;51.120;6.192;2022-10-29T05:53:04;13.23;;;5.90;;
18102;SDS011;9178;51.120;6.192;2022-10-29T05:55:33;12.90;;;5.87;;
18102;SDS011;9178;51.120;6.192;2022-10-29T05:58:01;11.57;;;5.67;;
18102;SDS011;9178;51.120;6.192;2022-10-29T06:00:31;12.97;;;5.20;;
18102;SDS011;9178;51.120;6.192;2022-10-29T06:02:59;13.67;;;5.33;;
18102;SDS011;9178;51.120;6.192;2022-10-29T06:05:26;9.43;;;5.43;;
18102;SDS011;9178;51.120;6.192;2022-10-29T06:07:53;11.00;;;6.00;;
18102;SDS011;9178;51.120;6.192;2022-10-29T06:10:20;10.33;;;5.03;;
18102;SDS011;9178;51.120;6.192;2022-10-29T06:12:48;11.37;;;4.90;;
18102;SDS011;9178;51.120;6.192;2022-10-29T06:15:15;18.93;;;5.30;;
18102;SDS011;9178;51.120;6.192;2022-10-29T06:17:44;13.47;;;5.10;;
18102;SDS011;9178;51.120;6.192;2022-10-29T06:20:12;10.07;;;4.63;;
18102;SDS011;9178;51.120;6.192;2022-10-29T06:22:39;10.00;;;4.70;;
18102;SDS011;9178;51.120;6.192;2022-10-29T06:25:07;10.23;;;4.43;;
18102;SDS011;9178;51.120;6.192;2022-10-29T06:27:34;8.77;;;4.60;;
18102;SDS011;9178;51.120;6.192;2022-10-29T06:30:01;9.20;;;5.23;;
18102;SDS011;9178;51.120;6.192;2022-10-29T06:32:28;16.80;;;5.57;;
18102;SDS011;9178;51.120;6.192;2022-10-29T06:34:56;11.50;;;5.13;;
18102;SDS011;9178;51.120;6.192;2022-10-29T06:37:23;10.30;;;5.07;;
18102;SDS011;9178;51.120;6.192;2022-10-29T06:39:50;12.07;;;5.23;;
18102;SDS011;9178;51.120;6.192;2022-10-29T06:42:17;8.53;;;4.43;;
18102;SDS011;9178;51.120;6.192;2022-10-29T06:44:43;8.80;;;4.47;;
18102;SDS011;9178;51.120;6.192;2022-10-29T06:47:10;9.07;;;4.43;;
18102;SDS011;9178;51.120;6.192;2022-10-29T06:49:37;12.53;;;5.40;;
18102;SDS011;9178;51.120;6.192;2022-10-29T06:52:05;10.63;;;5.07;;
18102;SDS011;9178;51.120;6.192;2022-10-29T06:54:32;14.07;;;5.87;;
18102;SDS011;9178;51.120;6.192;2022-10-29T06:56:59;16.90;;;6.33;;
18102;SDS011;9178;51.120;6.192;2022-10-29T06:59:25;14.17;;;6.70;;
18102;SDS011;9178;51.120;6.192;2022-10-29T07:01:52;16.27;;;8.32;;
18102;SDS011;9178;51.120;6.192;2022-10-29T07:04:19;20.47;;;7.83;;
18102;SDS011;9178;51.120;6.192;2022-10-29T07:06:46;17.20;;;7.77;;
18102;SDS011;9178;51.120;6.192;2022-10-29T07:09:14;19.57;;;7.70;;
18102;SDS011;9178;51.120;6.192;2022-10-29T07:11:41;21.03;;;7.90;;
18102;SDS011;9178;51.120;6.192;2022-10-29T07:14:08;15.20;;;7.55;;
18102;SDS011;9178;51.120;6.192;2022-10-29T07:16:34;21.52;;;8.25;;
18102;SDS011;9178;51.120;6.192;2022-10-29T07:19:02;14.50;;;7.78;;
18102;SDS011;9178;51.120;6.192;2022-10-29T07:21:29;17.30;;;8.02;;
18102;SDS011;9178;51.120;6.192;2022-10-29T07:23:55;14.32;;;7.00;;
18102;SDS011;9178;51.120;6.192;2022-10-29T07:26:23;14.90;;;6.78;;
18102;SDS011;9178;51.120;6.192;2022-10-29T07:28:53;14.67;;;7.00;;
18102;SDS011;9178;51.120;6.192;2022-10-29T07:31:21;10.90;;;6.33;;
18102;SDS011;9178;51.120;6.192;2022-10-29T07:33:49;14.80;;;6.80;;
18102;SDS011;9178;51.120;6.192;2022-10-29T07:36:15;14.80;;;6.20;;
18102;SDS011;9178;51.120;6.192;2022-10-29T07:38:42;16.00;;;6.57;;
18102;SDS011;9178;51.120;6.192;2022-10-29T07:41:09;13.70;;;6.47;;
18102;SDS011;9178;51.120;6.192;2022-10-29T07:43:37;9.63;;;5.65;;
18102;SDS011;9178;51.120;6.192;2022-10-29T07:46:04;14.93;;;6.33;;
18102;SDS011;9178;51.120;6.192;2022-10-29T07:48:31;12.43;;;5.53;;
18102;SDS011;9178;51.120;6.192;2022-10-29T07:50:58;9.37;;;5.20;;
18102;SDS011;9178;51.120;6.192;2022-10-29T07:53:25;11.82;;;5.68;;
18102;SDS011;9178;51.120;6.192;2022-10-29T07:55:56;11.70;;;5.10;;
18102;SDS011;9178;51.120;6.192;2022-10-29T07:58:23;7.60;;;4.65;;
18102;SDS011;9178;51.120;6.192;2022-10-29T08:00:52;11.27;;;4.32;;
18102;SDS011;9178;51.120;6.192;2022-10-29T08:03:19;9.30;;;4.60;;
18102;SDS011;9178;51.120;6.192;2022-10-29T08:05:46;11.57;;;4.40;;
18102;SDS011;9178;51.120;6.192;2022-10-29T08:08:13;12.07;;;4.73;;
18102;SDS011;9178;51.120;6.192;2022-10-29T08:10:42;10.05;;;4.35;;
18102;SDS011;9178;51.120;6.192;2022-10-29T08:13:09;9.05;;;4.13;;
18102;SDS011;9178;51.120;6.192;2022-10-29T08:15:36;8.63;;;4.22;;
18102;SDS011;9178;51.120;6.192;2022-10-29T08:18:09;11.75;;;4.20;;
18102;SDS011;9178;51.120;6.192;2022-10-29T08:20:39;13.48;;;3.97;;
18102;SDS011;9178;51.120;6.192;2022-10-29T08:23:06;10.55;;;4.05;;
18102;SDS011;9178;51.120;6.192;2022-10-29T08:25:33;9.88;;;4.18;;
18102;SDS011;9178;51.120;6.192;2022-10-29T08:28:05;8.20;;;4.22;;
18102;SDS011;9178;51.120;6.192;2022-10-29T08:30:33;9.32;;;4.32;;
18102;SDS011;9178;51.120;6.192;2022-10-29T08:33:00;11.18;;;4.20;;
18102;SDS011;9178;51.120;6.192;2022-10-29T08:35:28;9.05;;;3.70;;
18102;SDS011;9178;51.120;6.192;2022-10-29T08:37:55;11.23;;;4.28;;
18102;SDS011;9178;51.120;6.192;2022-10-29T08:40:26;7.97;;;4.00;;
18102;SDS011;9178;51.120;6.192;2022-10-29T08:43:00;12.13;;;4.15;;
18102;SDS011;9178;51.120;6.192;2022-10-29T08:45:47;12.10;;;4.40;;
18102;SDS011;9178;51.120;6.192;2022-10-29T08:48:21;9.88;;;3.95;;
18102;SDS011;9178;51.120;6.192;2022-10-29T08:50:57;8.85;;;3.90;;
18102;SDS011;9178;51.120;6.192;2022-10-29T08:53:31;6.97;;;4.05;;
18102;SDS011;9178;51.120;6.192;2022-10-29T08:56:02;8.32;;;4.05;;
18102;SDS011;9178;51.120;6.192;2022-10-29T08:58:32;8.52;;;3.92;;
18102;SDS011;9178;51.120;6.192;2022-10-29T09:01:02;6.60;;;3.38;;
18102;SDS011;9178;51.120;6.192;2022-10-29T09:03:34;8.15;;;4.07;;
18102;SDS011;9178;51.120;6.192;2022-10-29T09:06:06;9.23;;;3.63;;
18102;SDS011;9178;51.120;6.192;2022-10-29T09:08:39;10.02;;;3.72;;
18102;SDS011;9178;51.120;6.192;2022-10-29T09:11:37;7.97;;;3.45;;
18102;SDS011;9178;51.120;6.192;2022-10-29T09:14:31;13.38;;;3.90;;
18102;SDS011;9178;51.120;6.192;2022-10-29T09:17:12;10.73;;;3.60;;
18102;SDS011;9178;51.120;6.192;2022-10-29T09:19:51;8.93;;;3.40;;
18102;SDS011;9178;51.120;6.192;2022-10-29T09:22:31;10.80;;;3.70;;
18102;SDS011;9178;51.120;6.192;2022-10-29T09:25:08;9.20;;;3.63;;
18102;SDS011;9178;51.120;6.192;2022-10-29T09:27:45;7.20;;;3.20;;
18102;SDS011;9178;51.120;6.192;2022-10-29T09:30:20;9.98;;;3.50;;
18102;SDS011;9178;51.120;6.192;2022-10-29T09:32:49;13.48;;;3.70;;
18102;SDS011;9178;51.120;6.192;2022-10-29T09:35:26;9.38;;;3.92;;
18102;SDS011;9178;51.120;6.192;2022-10-29T09:38:04;11.95;;;4.15;;
18102;SDS011;9178;51.120;6.192;2022-10-29T09:40:34;13.25;;;3.90;;
18102;SDS011;9178;51.120;6.192;2022-10-29T09:43:04;12.73;;;4.13;;
18102;SDS011;9178;51.120;6.192;2022-10-29T09:45:43;7.78;;;3.53;;
18102;SDS011;9178;51.120;6.192;2022-10-29T09:48:15;10.27;;;3.50;;
18102;SDS011;9178;51.120;6.192;2022-10-29T09:50:50;9.20;;;4.00;;
18102;SDS011;9178;51.120;6.192;2022-10-29T09:53:26;7.90;;;3.40;;
18102;SDS011;9178;51.120;6.192;2022-10-29T09:55:53;9.48;;;3.78;;
18102;SDS011;9178;51.120;6.192;2022-10-29T09:58:21;12.98;;;4.22;;
18102;SDS011;9178;51.120;6.192;2022-10-29T10:00:49;9.27;;;4.10;;
18102;SDS011;9178;51.120;6.192;2022-10-29T10:03:18;10.63;;;4.28;;
18102;SDS011;9178;51.120;6.192;2022-10-29T10:05:55;10.88;;;4.20;;
18102;SDS011;9178;51.120;6.192;2022-10-29T10:08:28;8.30;;;3.83;;
18102;SDS011;9178;51.120;6.192;2022-10-29T10:10:56;9.32;;;3.70;;
18102;SDS011;9178;51.120;6.192;2022-10-29T10:13:25;9.88;;;3.90;;
18102;SDS011;9178;51.120;6.192;2022-10-29T10:15:55;13.07;;;3.75;;
18102;SDS011;9178;51.120;6.192;2022-10-29T10:18:23;7.43;;;3.70;;
18102;SDS011;9178;51.120;6.192;2022-10-29T10:21:02;11.40;;;4.15;;
18102;SDS011;9178;51.120;6.192;2022-10-29T10:23:39;8.68;;;3.35;;
18102;SDS011;9178;51.120;6.192;2022-10-29T10:29:04;14.20;;;3.70;;
18102;SDS011;9178;51.120;6.192;2022-10-29T10:31:35;10.25;;;4.05;;
18102;SDS011;9178;51.120;6.192;2022-10-29T10:34:06;10.88;;;4.05;;
18102;SDS011;9178;51.120;6.192;2022-10-29T10:36:37;8.52;;;3.60;;
18102;SDS011;9178;51.120;6.192;2022-10-29T10:39:15;7.93;;;4.00;;
18102;SDS011;9178;51.120;6.192;2022-10-29T10:41:48;11.90;;;3.80;;
18102;SDS011;9178;51.120;6.192;2022-10-29T10:44:16;14.82;;;3.63;;
18102;SDS011;9178;51.120;6.192;2022-10-29T10:46:45;13.07;;;4.10;;
18102;SDS011;9178;51.120;6.192;2022-10-29T10:49:15;7.68;;;3.50;;
18102;SDS011;9178;51.120;6.192;2022-10-29T10:51:43;7.63;;;3.65;;
18102;SDS011;9178;51.120;6.192;2022-10-29T10:54:25;9.77;;;3.97;;
18102;SDS011;9178;51.120;6.192;2022-10-29T10:56:57;11.05;;;3.33;;
18102;SDS011;9178;51.120;6.192;2022-10-29T10:59:26;9.73;;;3.65;;
18102;SDS011;9178;51.120;6.192;2022-10-29T11:02:07;8.70;;;3.20;;
18102;SDS011;9178;51.120;6.192;2022-10-29T11:04:42;9.38;;;3.60;;
18102;SDS011;9178;51.120;6.192;2022-10-29T11:07:10;10.20;;;4.05;;
18102;SDS011;9178;51.120;6.192;2022-10-29T11:09:42;10.35;;;3.80;;
18102;SDS011;9178;51.120;6.192;2022-10-29T11:12:12;9.07;;;3.45;;
18102;SDS011;9178;51.120;6.192;2022-10-29T11:14:47;9.57;;;3.65;;
18102;SDS011;9178;51.120;6.192;2022-10-29T11:17:22;9.10;;;4.03;;
18102;SDS011;9178;51.120;6.192;2022-10-29T11:19:53;6.88;;;3.72;;
18102;SDS011;9178;51.120;6.192;2022-10-29T11:22:25;11.43;;;3.78;;
18102;SDS011;9178;51.120;6.192;2022-10-29T11:24:59;9.15;;;3.72;;
18102;SDS011;9178;51.120;6.192;2022-10-29T11:27:35;7.28;;;3.10;;
18102;SDS011;9178;51.120;6.192;2022-10-29T11:30:11;11.25;;;3.63;;
18102;SDS011;9178;51.120;6.192;2022-10-29T11:32:43;8.27;;;3.42;;
18102;SDS011;9178;51.120;6.192;2022-10-29T11:35:18;6.75;;;3.28;;
18102;SDS011;9178;51.120;6.192;2022-10-29T11:37:49;13.02;;;4.00;;
18102;SDS011;9178;51.120;6.192;2022-10-29T11:40:26;9.20;;;3.38;;
18102;SDS011;9178;51.120;6.192;2022-10-29T11:43:07;11.95;;;3.90;;
18102;SDS011;9178;51.120;6.192;2022-10-29T11:45:39;9.93;;;3.50;;
18102;SDS011;9178;51.120;6.192;2022-10-29T11:48:15;10.45;;;3.67;;
18102;SDS011;9178;51.120;6.192;2022-10-29T11:50:49;13.45;;;3.75;;
18102;SDS011;9178;51.120;6.192;2022-10-29T11:53:26;9.65;;;3.47;;
18102;SDS011;9178;51.120;6.192;2022-10-29T11:56:17;12.10;;;3.92;;
18102;SDS011;9178;51.120;6.192;2022-10-29T11:58:51;10.55;;;3.55;;
18102;SDS011;9178;51.120;6.192;2022-10-29T12:01:24;15.55;;;3.63;;
18102;SDS011;9178;51.120;6.192;2022-10-29T12:04:01;11.88;;;3.63;;
18102;SDS011;9178;51.120;6.192;2022-10-29T12:06:44;9.07;;;3.30;;
18102;SDS011;9178;51.120;6.192;2022-10-29T12:09:31;9.13;;;3.30;;
18102;SDS011;9178;51.120;6.192;2022-10-29T12:12:09;6.70;;;3.05;;
18102;SDS011;9178;51.120;6.192;2022-10-29T12:14:42;8.45;;;3.08;;
18102;SDS011;9178;51.120;6.192;2022-10-29T12:17:14;8.50;;;3.83;;
18102;SDS011;9178;51.120;6.192;2022-10-29T12:19:46;7.97;;;3.10;;
18102;SDS011;9178;51.120;6.192;2022-10-29T12:22:20;7.80;;;3.00;;
18102;SDS011;9178;51.120;6.192;2022-10-29T12:24:58;10.40;;;3.28;;
18102;SDS011;9178;51.120;6.192;2022-10-29T12:27:37;6.63;;;3.10;;
18102;SDS011;9178;51.120;6.192;2022-10-29T12:30:11;7.43;;;3.30;;
18102;SDS011;9178;51.120;6.192;2022-10-29T12:32:44;6.30;;;3.03;;
18102;SDS011;9178;51.120;6.192;2022-10-29T12:35:18;6.72;;;3.45;;
18102;SDS011;9178;51.120;6.192;2022-10-29T12:37:56;9.00;;;3.53;;
18102;SDS011;9178;51.120;6.192;2022-10-29T12:40:36;7.15;;;3.15;;
18102;SDS011;9178;51.120;6.192;2022-10-29T12:43:06;8.77;;;3.42;;
18102;SDS011;9178;51.120;6.192;2022-10-29T12:45:50;12.20;;;3.85;;
18102;SDS011;9178;51.120;6.192;2022-10-29T12:48:25;7.00;;;3.00;;
18102;SDS011;9178;51.120;6.192;2022-10-29T12:51:02;10.88;;;3.25;;
18102;SDS011;9178;51.120;6.192;2022-10-29T12:53:34;8.68;;;3.33;;
18102;SDS011;9178;51.120;6.192;2022-10-29T12:56:06;8.80;;;3.63;;
18102;SDS011;9178;51.120;6.192;2022-10-29T12:58:48;10.73;;;3.55;;
18102;SDS011;9178;51.120;6.192;2022-10-29T13:04:20;8.93;;;3.40;;
18102;SDS011;9178;51.120;6.192;2022-10-29T13:06:54;9.95;;;3.15;;
18102;SDS011;9178;51.120;6.192;2022-10-29T13:09:27;7.20;;;3.25;;
18102;SDS011;9178;51.120;6.192;2022-10-29T13:11:55;6.93;;;2.85;;
18102;SDS011;9178;51.120;6.192;2022-10-29T13:14:25;8.77;;;3.70;;
18102;SDS011;9178;51.120;6.192;2022-10-29T13:16:58;9.15;;;3.38;;
18102;SDS011;9178;51.120;6.192;2022-10-29T13:19:35;9.55;;;3.70;;
18102;SDS011;9178;51.120;6.192;2022-10-29T13:25:26;7.03;;;3.28;;
18102;SDS011;9178;51.120;6.192;2022-10-29T13:34:08;9.27;;;3.50;;
18102;SDS011;9178;51.120;6.192;2022-10-29T13:36:35;10.50;;;4.32;;
18102;SDS011;9178;51.120;6.192;2022-10-29T13:39:14;11.27;;;3.83;;
18102;SDS011;9178;51.120;6.192;2022-10-29T13:41:47;9.80;;;3.70;;
18102;SDS011;9178;51.120;6.192;2022-10-29T13:44:15;9.05;;;4.00;;
18102;SDS011;9178;51.120;6.192;2022-10-29T13:46:52;9.85;;;3.72;;
18102;SDS011;9178;51.120;6.192;2022-10-29T13:49:24;11.35;;;3.78;;
18102;SDS011;9178;51.120;6.192;2022-10-29T13:51:56;9.55;;;3.97;;
18102;SDS011;9178;51.120;6.192;2022-10-29T13:54:36;14.35;;;3.90;;
18102;SDS011;9178;51.120;6.192;2022-10-29T13:57:06;16.80;;;4.30;;
18102;SDS011;9178;51.120;6.192;2022-10-29T13:59:44;11.27;;;4.85;;
18102;SDS011;9178;51.120;6.192;2022-10-29T14:02:21;11.43;;;3.45;;
18102;SDS011;9178;51.120;6.192;2022-10-29T14:04:55;11.10;;;3.67;;
18102;SDS011;9178;51.120;6.192;2022-10-29T14:07:27;7.53;;;3.70;;
18102;SDS011;9178;51.120;6.192;2022-10-29T14:10:01;9.90;;;4.00;;
18102;SDS011;9178;51.120;6.192;2022-10-29T14:12:37;10.40;;;4.15;;
18102;SDS011;9178;51.120;6.192;2022-10-29T14:15:07;12.00;;;4.07;;
18102;SDS011;9178;51.120;6.192;2022-10-29T14:17:38;11.70;;;3.75;;
18102;SDS011;9178;51.120;6.192;2022-10-29T14:20:17;9.57;;;3.78;;
18102;SDS011;9178;51.120;6.192;2022-10-29T14:22:48;13.23;;;3.40;;
18102;SDS011;9178;51.120;6.192;2022-10-29T14:25:26;10.82;;;3.78;;
18102;SDS011;9178;51.120;6.192;2022-10-29T14:28:09;11.07;;;3.60;;
18102;SDS011;9178;51.120;6.192;2022-10-29T14:30:40;9.45;;;3.90;;
18102;SDS011;9178;51.120;6.192;2022-10-29T14:36:02;12.38;;;4.00;;
18102;SDS011;9178;51.120;6.192;2022-10-29T14:38:36;8.35;;;3.97;;
18102;SDS011;9178;51.120;6.192;2022-10-29T14:41:06;13.73;;;3.95;;
18102;SDS011;9178;51.120;6.192;2022-10-29T14:43:34;10.45;;;3.90;;
18102;SDS011;9178;51.120;6.192;2022-10-29T14:46:08;8.20;;;4.00;;
18102;SDS011;9178;51.120;6.192;2022-10-29T14:48:50;16.88;;;4.95;;
18102;SDS011;9178;51.120;6.192;2022-10-29T14:51:23;7.28;;;4.15;;
18102;SDS011;9178;51.120;6.192;2022-10-29T14:53:53;10.93;;;3.88;;
18102;SDS011;9178;51.120;6.192;2022-10-29T14:56:27;9.10;;;3.40;;
18102;SDS011;9178;51.120;6.192;2022-10-29T14:58:58;8.90;;;3.10;;
18102;SDS011;9178;51.120;6.192;2022-10-29T15:01:28;7.07;;;3.15;;
18102;SDS011;9178;51.120;6.192;2022-10-29T15:03:57;7.05;;;3.45;;
18102;SDS011;9178;51.120;6.192;2022-10-29T15:06:25;10.63;;;3.45;;
18102;SDS011;9178;51.120;6.192;2022-10-29T15:08:53;10.93;;;3.33;;
18102;SDS011;9178;51.120;6.192;2022-10-29T15:11:29;10.90;;;3.03;;
18102;SDS011;9178;51.120;6.192;2022-10-29T15:13:59;8.43;;;3.67;;
18102;SDS011;9178;51.120;6.192;2022-10-29T15:16:26;11.05;;;3.72;;
18102;SDS011;9178;51.120;6.192;2022-10-29T15:18:54;8.18;;;3.38;;
18102;SDS011;9178;51.120;6.192;2022-10-29T15:21:25;9.57;;;3.30;;
18102;SDS011;9178;51.120;6.192;2022-10-29T15:23:55;10.27;;;3.65;;
18102;SDS011;9178;51.120;6.192;2022-10-29T15:26:27;8.57;;;3.63;;
18102;SDS011;9178;51.120;6.192;2022-10-29T15:28:54;10.90;;;3.90;;
18102;SDS011;9178;51.120;6.192;2022-10-29T15:31:23;11.98;;;3.75;;